KMFR/MFR METAR and TAF weather

Enter ICAO airport designator
Station Type Date Time Source
KMFR METAR 2020/04/09 09:53 UTC NOAA

KMFR 090953Z AUTO 00000KT 10SM CLR 08/04 A3005 RMK AO2 SLP170 T00830044


Station Type Date Time Source
KMFR Decoded METAR 2020/04/09 09:53 UTC NOAA

ROGUE VALLEY INTERNATIONAL AIRPORT, OR, United States (KMFR) 42-23N 122-53W 396M
Apr 09, 2020 - 05:53 AM EDT / 2020.04.09 0953 UTC
Wind: Calm:0
Visibility: 10 mile(s):0
Sky conditions: clear
Temperature: 46.9 F (8.3 C)
Dew Point: 39.9 F (4.4 C)
Relative Humidity: 76%
Pressure (altimeter): 30.05 in. Hg (1017 hPa)
ob: KMFR 090953Z AUTO 00000KT 10SM CLR 08/04 A3005 RMK AO2 SLP170 T00830044
cycle: 10

Station Type Date Time Source
KMFR TAF 2020/04/09 06:36 UTC NOAA

TAF KMFR 090533Z 0906/1006 VRB03KT P6SM SKC

Example: see airport list